sensor_id;sensor_type;location;lat;lon;timestamp;P1;durP1;ratioP1;P2;durP2;ratioP2
13255;SDS011;37913;48.370;10.930;2023-04-25T00:02:04;83.82;;;34.70;;
13255;SDS011;37913;48.370;10.930;2023-04-25T00:04:32;67.77;;;31.30;;
13255;SDS011;37913;48.370;10.930;2023-04-25T00:06:59;80.93;;;33.80;;
13255;SDS011;37913;48.370;10.930;2023-04-25T00:09:29;77.97;;;33.05;;
13255;SDS011;37913;48.370;10.930;2023-04-25T00:11:56;78.47;;;33.67;;
13255;SDS011;37913;48.370;10.930;2023-04-25T00:14:22;75.57;;;32.88;;
13255;SDS011;37913;48.370;10.930;2023-04-25T00:16:50;78.53;;;33.47;;
13255;SDS011;37913;48.370;10.930;2023-04-25T00:19:18;75.73;;;32.93;;
13255;SDS011;37913;48.370;10.930;2023-04-25T00:21:45;90.27;;;36.03;;
13255;SDS011;37913;48.370;10.930;2023-04-25T00:24:12;80.80;;;33.97;;
13255;SDS011;37913;48.370;10.930;2023-04-25T00:26:41;74.87;;;32.97;;
13255;SDS011;37913;48.370;10.930;2023-04-25T00:29:07;78.73;;;32.80;;
13255;SDS011;37913;48.370;10.930;2023-04-25T00:31:34;88.43;;;35.63;;
13255;SDS011;37913;48.370;10.930;2023-04-25T00:34:02;86.97;;;35.73;;
13255;SDS011;37913;48.370;10.930;2023-04-25T00:36:29;89.70;;;36.27;;
13255;SDS011;37913;48.370;10.930;2023-04-25T00:38:56;80.20;;;34.27;;
13255;SDS011;37913;48.370;10.930;2023-04-25T00:41:23;75.23;;;33.37;;
13255;SDS011;37913;48.370;10.930;2023-04-25T00:43:53;69.70;;;31.73;;
13255;SDS011;37913;48.370;10.930;2023-04-25T00:46:20;77.60;;;33.43;;
13255;SDS011;37913;48.370;10.930;2023-04-25T00:48:47;78.13;;;33.73;;
13255;SDS011;37913;48.370;10.930;2023-04-25T00:51:16;74.53;;;33.17;;
13255;SDS011;37913;48.370;10.930;2023-04-25T00:53:45;82.77;;;34.70;;
13255;SDS011;37913;48.370;10.930;2023-04-25T00:56:13;82.33;;;34.37;;
13255;SDS011;37913;48.370;10.930;2023-04-25T00:58:40;76.97;;;32.97;;
13255;SDS011;37913;48.370;10.930;2023-04-25T01:01:09;84.23;;;35.00;;
13255;SDS011;37913;48.370;10.930;2023-04-25T01:03:37;78.47;;;33.30;;
13255;SDS011;37913;48.370;10.930;2023-04-25T01:06:06;84.23;;;34.63;;
13255;SDS011;37913;48.370;10.930;2023-04-25T01:08:35;77.63;;;33.73;;
13255;SDS011;37913;48.370;10.930;2023-04-25T01:11:03;81.23;;;33.80;;
13255;SDS011;37913;48.370;10.930;2023-04-25T01:13:30;75.47;;;33.23;;
13255;SDS011;37913;48.370;10.930;2023-04-25T01:15:57;79.83;;;33.63;;
13255;SDS011;37913;48.370;10.930;2023-04-25T01:18:26;79.90;;;34.27;;
13255;SDS011;37913;48.370;10.930;2023-04-25T01:20:53;78.23;;;33.33;;
13255;SDS011;37913;48.370;10.930;2023-04-25T01:23:22;82.10;;;34.40;;
13255;SDS011;37913;48.370;10.930;2023-04-25T01:25:49;74.50;;;33.43;;
13255;SDS011;37913;48.370;10.930;2023-04-25T01:28:17;82.65;;;34.70;;
13255;SDS011;37913;48.370;10.930;2023-04-25T01:30:44;82.70;;;34.77;;
13255;SDS011;37913;48.370;10.930;2023-04-25T01:33:12;77.30;;;33.77;;
13255;SDS011;37913;48.370;10.930;2023-04-25T01:35:41;76.73;;;33.50;;
13255;SDS011;37913;48.370;10.930;2023-04-25T01:38:08;88.17;;;35.83;;
13255;SDS011;37913;48.370;10.930;2023-04-25T01:40:38;72.90;;;32.87;;
13255;SDS011;37913;48.370;10.930;2023-04-25T01:43:06;83.17;;;34.40;;
13255;SDS011;37913;48.370;10.930;2023-04-25T01:45:36;71.03;;;32.73;;
13255;SDS011;37913;48.370;10.930;2023-04-25T01:48:05;81.70;;;34.47;;
13255;SDS011;37913;48.370;10.930;2023-04-25T01:50:32;75.17;;;32.90;;
13255;SDS011;37913;48.370;10.930;2023-04-25T01:52:59;78.20;;;33.73;;
13255;SDS011;37913;48.370;10.930;2023-04-25T01:55:26;76.10;;;33.53;;
13255;SDS011;37913;48.370;10.930;2023-04-25T01:57:55;76.50;;;33.60;;
13255;SDS011;37913;48.370;10.930;2023-04-25T02:00:22;78.87;;;33.93;;
13255;SDS011;37913;48.370;10.930;2023-04-25T02:02:49;76.57;;;33.83;;
13255;SDS011;37913;48.370;10.930;2023-04-25T02:05:18;76.33;;;33.03;;
13255;SDS011;37913;48.370;10.930;2023-04-25T02:07:46;74.57;;;32.90;;
13255;SDS011;37913;48.370;10.930;2023-04-25T02:10:13;85.10;;;34.93;;
13255;SDS011;37913;48.370;10.930;2023-04-25T02:12:40;82.70;;;34.60;;
13255;SDS011;37913;48.370;10.930;2023-04-25T02:15:09;80.60;;;34.27;;
13255;SDS011;37913;48.370;10.930;2023-04-25T02:17:36;90.93;;;36.53;;
13255;SDS011;37913;48.370;10.930;2023-04-25T02:20:04;78.23;;;33.97;;
13255;SDS011;37913;48.370;10.930;2023-04-25T02:22:32;86.07;;;35.37;;
13255;SDS011;37913;48.370;10.930;2023-04-25T02:25:00;96.13;;;37.33;;
13255;SDS011;37913;48.370;10.930;2023-04-25T02:27:29;81.23;;;34.80;;
13255;SDS011;37913;48.370;10.930;2023-04-25T02:29:56;78.07;;;33.93;;
13255;SDS011;37913;48.370;10.930;2023-04-25T02:32:24;80.10;;;34.03;;
13255;SDS011;37913;48.370;10.930;2023-04-25T02:34:52;101.30;;;38.20;;
13255;SDS011;37913;48.370;10.930;2023-04-25T02:37:18;84.27;;;34.93;;
13255;SDS011;37913;48.370;10.930;2023-04-25T02:39:45;78.57;;;34.10;;
13255;SDS011;37913;48.370;10.930;2023-04-25T02:42:12;98.10;;;37.47;;
13255;SDS011;37913;48.370;10.930;2023-04-25T02:44:39;95.10;;;37.17;;
13255;SDS011;37913;48.370;10.930;2023-04-25T02:47:06;80.60;;;34.88;;
13255;SDS011;37913;48.370;10.930;2023-04-25T02:49:34;78.40;;;33.95;;
13255;SDS011;37913;48.370;10.930;2023-04-25T02:52:01;76.97;;;33.67;;
13255;SDS011;37913;48.370;10.930;2023-04-25T02:54:29;83.73;;;35.27;;
13255;SDS011;37913;48.370;10.930;2023-04-25T02:56:56;80.50;;;34.00;;
13255;SDS011;37913;48.370;10.930;2023-04-25T02:59:23;81.63;;;33.93;;
13255;SDS011;37913;48.370;10.930;2023-04-25T03:01:50;80.40;;;34.38;;
13255;SDS011;37913;48.370;10.930;2023-04-25T03:04:17;84.03;;;34.20;;
13255;SDS011;37913;48.370;10.930;2023-04-25T03:06:45;80.10;;;34.38;;
13255;SDS011;37913;48.370;10.930;2023-04-25T03:09:12;85.63;;;35.23;;
13255;SDS011;37913;48.370;10.930;2023-04-25T03:11:39;83.28;;;34.63;;
13255;SDS011;37913;48.370;10.930;2023-04-25T03:14:06;89.78;;;35.70;;
13255;SDS011;37913;48.370;10.930;2023-04-25T03:16:33;81.95;;;34.42;;
13255;SDS011;37913;48.370;10.930;2023-04-25T03:19:00;77.85;;;33.40;;
13255;SDS011;37913;48.370;10.930;2023-04-25T03:21:27;74.72;;;33.03;;
13255;SDS011;37913;48.370;10.930;2023-04-25T03:23:55;76.78;;;33.50;;
13255;SDS011;37913;48.370;10.930;2023-04-25T03:26:22;76.45;;;33.58;;
13255;SDS011;37913;48.370;10.930;2023-04-25T03:28:49;75.32;;;32.80;;
13255;SDS011;37913;48.370;10.930;2023-04-25T03:31:16;76.28;;;33.13;;
13255;SDS011;37913;48.370;10.930;2023-04-25T03:33:43;69.82;;;32.13;;
13255;SDS011;37913;48.370;10.930;2023-04-25T03:36:10;83.47;;;34.40;;
13255;SDS011;37913;48.370;10.930;2023-04-25T03:38:37;76.20;;;32.90;;
13255;SDS011;37913;48.370;10.930;2023-04-25T03:41:07;80.05;;;33.70;;
13255;SDS011;37913;48.370;10.930;2023-04-25T03:43:34;82.53;;;33.65;;
13255;SDS011;37913;48.370;10.930;2023-04-25T03:46:01;74.37;;;33.07;;
13255;SDS011;37913;48.370;10.930;2023-04-25T03:48:28;83.00;;;34.17;;
13255;SDS011;37913;48.370;10.930;2023-04-25T03:50:55;79.20;;;33.75;;
13255;SDS011;37913;48.370;10.930;2023-04-25T03:53:22;79.47;;;34.30;;
13255;SDS011;37913;48.370;10.930;2023-04-25T03:55:49;82.22;;;34.63;;
13255;SDS011;37913;48.370;10.930;2023-04-25T03:58:17;74.47;;;33.10;;
13255;SDS011;37913;48.370;10.930;2023-04-25T04:00:44;86.10;;;35.38;;
13255;SDS011;37913;48.370;10.930;2023-04-25T04:03:11;85.83;;;35.13;;
13255;SDS011;37913;48.370;10.930;2023-04-25T04:05:38;74.45;;;33.00;;
13255;SDS011;37913;48.370;10.930;2023-04-25T04:08:05;82.70;;;34.15;;
13255;SDS011;37913;48.370;10.930;2023-04-25T04:10:32;82.33;;;34.57;;
13255;SDS011;37913;48.370;10.930;2023-04-25T04:12:59;78.70;;;33.97;;
13255;SDS011;37913;48.370;10.930;2023-04-25T04:15:28;82.57;;;34.72;;
13255;SDS011;37913;48.370;10.930;2023-04-25T04:17:58;77.72;;;33.58;;
13255;SDS011;37913;48.370;10.930;2023-04-25T04:20:27;80.45;;;34.42;;
13255;SDS011;37913;48.370;10.930;2023-04-25T04:22:55;106.03;;;39.95;;
13255;SDS011;37913;48.370;10.930;2023-04-25T04:25:22;82.20;;;34.28;;
13255;SDS011;37913;48.370;10.930;2023-04-25T04:27:49;80.55;;;34.35;;
13255;SDS011;37913;48.370;10.930;2023-04-25T04:30:21;83.38;;;34.80;;
13255;SDS011;37913;48.370;10.930;2023-04-25T04:32:50;98.10;;;37.42;;
13255;SDS011;37913;48.370;10.930;2023-04-25T04:35:17;87.97;;;35.05;;
13255;SDS011;37913;48.370;10.930;2023-04-25T04:37:44;93.53;;;36.63;;
13255;SDS011;37913;48.370;10.930;2023-04-25T04:40:13;78.20;;;33.35;;
13255;SDS011;37913;48.370;10.930;2023-04-25T04:42:40;94.17;;;36.50;;
13255;SDS011;37913;48.370;10.930;2023-04-25T04:45:08;83.13;;;34.20;;
13255;SDS011;37913;48.370;10.930;2023-04-25T04:47:36;80.57;;;34.17;;
13255;SDS011;37913;48.370;10.930;2023-04-25T04:50:06;90.15;;;35.75;;
13255;SDS011;37913;48.370;10.930;2023-04-25T04:52:34;87.40;;;34.83;;
13255;SDS011;37913;48.370;10.930;2023-04-25T04:57:38;76.78;;;35.20;;
13255;SDS011;37913;48.370;10.930;2023-04-25T05:00:05;76.85;;;34.33;;
13255;SDS011;37913;48.370;10.930;2023-04-25T05:02:36;88.43;;;35.88;;
13255;SDS011;37913;48.370;10.930;2023-04-25T05:05:05;74.72;;;36.30;;
13255;SDS011;37913;48.370;10.930;2023-04-25T05:07:35;82.55;;;36.33;;
13255;SDS011;37913;48.370;10.930;2023-04-25T05:10:02;83.10;;;42.30;;
13255;SDS011;37913;48.370;10.930;2023-04-25T05:12:40;80.67;;;35.33;;
13255;SDS011;37913;48.370;10.930;2023-04-25T05:15:08;88.60;;;36.45;;
13255;SDS011;37913;48.370;10.930;2023-04-25T05:17:35;80.75;;;35.55;;
13255;SDS011;37913;48.370;10.930;2023-04-25T05:22:39;83.75;;;36.97;;
13255;SDS011;37913;48.370;10.930;2023-04-25T05:25:07;71.73;;;34.27;;
13255;SDS011;37913;48.370;10.930;2023-04-25T05:27:34;79.50;;;36.87;;
13255;SDS011;37913;48.370;10.930;2023-04-25T05:30:01;79.15;;;36.03;;
13255;SDS011;37913;48.370;10.930;2023-04-25T05:32:28;80.22;;;36.88;;
13255;SDS011;37913;48.370;10.930;2023-04-25T05:34:55;93.90;;;38.33;;
13255;SDS011;37913;48.370;10.930;2023-04-25T05:37:23;85.63;;;37.13;;
13255;SDS011;37913;48.370;10.930;2023-04-25T05:39:50;76.30;;;34.43;;
13255;SDS011;37913;48.370;10.930;2023-04-25T05:42:19;75.17;;;36.50;;
13255;SDS011;37913;48.370;10.930;2023-04-25T05:44:46;90.07;;;37.85;;
13255;SDS011;37913;48.370;10.930;2023-04-25T05:47:13;80.90;;;35.03;;
13255;SDS011;37913;48.370;10.930;2023-04-25T05:49:40;82.97;;;36.97;;
13255;SDS011;37913;48.370;10.930;2023-04-25T05:52:07;80.53;;;35.97;;
13255;SDS011;37913;48.370;10.930;2023-04-25T05:54:36;78.97;;;35.50;;
13255;SDS011;37913;48.370;10.930;2023-04-25T05:57:03;82.80;;;36.17;;
13255;SDS011;37913;48.370;10.930;2023-04-25T05:59:30;86.90;;;36.53;;
13255;SDS011;37913;48.370;10.930;2023-04-25T06:01:56;81.22;;;36.05;;
13255;SDS011;37913;48.370;10.930;2023-04-25T06:04:24;81.75;;;37.13;;
13255;SDS011;37913;48.370;10.930;2023-04-25T06:06:51;88.22;;;36.83;;
13255;SDS011;37913;48.370;10.930;2023-04-25T06:09:18;83.95;;;37.88;;
13255;SDS011;37913;48.370;10.930;2023-04-25T06:11:46;84.32;;;35.42;;
13255;SDS011;37913;48.370;10.930;2023-04-25T06:14:13;82.27;;;37.73;;
13255;SDS011;37913;48.370;10.930;2023-04-25T06:16:40;77.83;;;34.90;;
13255;SDS011;37913;48.370;10.930;2023-04-25T06:19:09;79.57;;;37.83;;
13255;SDS011;37913;48.370;10.930;2023-04-25T06:21:36;85.82;;;39.42;;
13255;SDS011;37913;48.370;10.930;2023-04-25T06:24:03;77.13;;;35.30;;
13255;SDS011;37913;48.370;10.930;2023-04-25T06:26:30;80.30;;;35.95;;
13255;SDS011;37913;48.370;10.930;2023-04-25T06:28:58;81.25;;;36.50;;
13255;SDS011;37913;48.370;10.930;2023-04-25T06:31:25;75.35;;;35.60;;
13255;SDS011;37913;48.370;10.930;2023-04-25T06:33:53;93.55;;;38.30;;
13255;SDS011;37913;48.370;10.930;2023-04-25T06:36:21;78.00;;;36.35;;
13255;SDS011;37913;48.370;10.930;2023-04-25T06:38:51;80.55;;;34.03;;
13255;SDS011;37913;48.370;10.930;2023-04-25T06:41:18;82.72;;;37.65;;
13255;SDS011;37913;48.370;10.930;2023-04-25T06:43:45;89.57;;;39.55;;
13255;SDS011;37913;48.370;10.930;2023-04-25T06:46:14;85.53;;;35.90;;
13255;SDS011;37913;48.370;10.930;2023-04-25T06:48:41;88.38;;;39.60;;
13255;SDS011;37913;48.370;10.930;2023-04-25T06:51:08;84.05;;;35.67;;
13255;SDS011;37913;48.370;10.930;2023-04-25T06:53:35;80.35;;;37.28;;
13255;SDS011;37913;48.370;10.930;2023-04-25T06:56:02;84.70;;;38.67;;
13255;SDS011;37913;48.370;10.930;2023-04-25T06:58:30;78.07;;;35.35;;
13255;SDS011;37913;48.370;10.930;2023-04-25T07:00:58;84.10;;;37.95;;
13255;SDS011;37913;48.370;10.930;2023-04-25T07:03:26;89.13;;;37.55;;
13255;SDS011;37913;48.370;10.930;2023-04-25T07:05:53;80.07;;;37.05;;
13255;SDS011;37913;48.370;10.930;2023-04-25T07:08:20;78.97;;;36.22;;
13255;SDS011;37913;48.370;10.930;2023-04-25T07:10:47;87.30;;;38.38;;
13255;SDS011;37913;48.370;10.930;2023-04-25T07:13:14;80.93;;;37.88;;
13255;SDS011;37913;48.370;10.930;2023-04-25T07:15:47;80.03;;;34.05;;
13255;SDS011;37913;48.370;10.930;2023-04-25T07:18:14;79.03;;;34.55;;
13255;SDS011;37913;48.370;10.930;2023-04-25T07:20:43;80.20;;;35.58;;
13255;SDS011;37913;48.370;10.930;2023-04-25T07:23:10;79.30;;;34.80;;
13255;SDS011;37913;48.370;10.930;2023-04-25T07:25:37;81.93;;;36.95;;
13255;SDS011;37913;48.370;10.930;2023-04-25T07:28:04;75.07;;;33.70;;
13255;SDS011;37913;48.370;10.930;2023-04-25T07:30:31;75.35;;;35.30;;
13255;SDS011;37913;48.370;10.930;2023-04-25T07:33:00;77.20;;;38.40;;
13255;SDS011;37913;48.370;10.930;2023-04-25T07:35:27;72.85;;;34.35;;
13255;SDS011;37913;48.370;10.930;2023-04-25T07:37:56;82.43;;;36.97;;
13255;SDS011;37913;48.370;10.930;2023-04-25T07:40:24;73.10;;;36.38;;
13255;SDS011;37913;48.370;10.930;2023-04-25T07:42:52;79.50;;;38.00;;
13255;SDS011;37913;48.370;10.930;2023-04-25T07:45:20;78.28;;;37.85;;
13255;SDS011;37913;48.370;10.930;2023-04-25T07:47:47;87.15;;;38.75;;
13255;SDS011;37913;48.370;10.930;2023-04-25T07:50:15;88.68;;;41.67;;
13255;SDS011;37913;48.370;10.930;2023-04-25T07:52:42;86.15;;;42.20;;
13255;SDS011;37913;48.370;10.930;2023-04-25T07:55:10;99.60;;;63.00;;
13255;SDS011;37913;48.370;10.930;2023-04-25T07:57:37;78.63;;;44.63;;
13255;SDS011;37913;48.370;10.930;2023-04-25T08:00:05;86.20;;;41.40;;
13255;SDS011;37913;48.370;10.930;2023-04-25T08:02:34;90.43;;;44.08;;
13255;SDS011;37913;48.370;10.930;2023-04-25T08:05:02;94.60;;;45.78;;
13255;SDS011;37913;48.370;10.930;2023-04-25T08:07:29;86.10;;;45.83;;
13255;SDS011;37913;48.370;10.930;2023-04-25T08:09:56;85.70;;;41.78;;
13255;SDS011;37913;48.370;10.930;2023-04-25T08:12:24;87.82;;;42.38;;
13255;SDS011;37913;48.370;10.930;2023-04-25T08:14:51;98.78;;;44.75;;
13255;SDS011;37913;48.370;10.930;2023-04-25T08:17:19;94.93;;;45.30;;
13255;SDS011;37913;48.370;10.930;2023-04-25T08:19:46;91.97;;;44.45;;
13255;SDS011;37913;48.370;10.930;2023-04-25T08:22:13;93.25;;;49.58;;
13255;SDS011;37913;48.370;10.930;2023-04-25T08:24:41;92.82;;;44.55;;
13255;SDS011;37913;48.370;10.930;2023-04-25T08:27:08;87.38;;;43.50;;
13255;SDS011;37913;48.370;10.930;2023-04-25T08:29:36;89.18;;;42.78;;
13255;SDS011;37913;48.370;10.930;2023-04-25T08:32:03;91.63;;;43.83;;
13255;SDS011;37913;48.370;10.930;2023-04-25T08:34:30;85.57;;;42.70;;
13255;SDS011;37913;48.370;10.930;2023-04-25T08:36:57;87.97;;;43.33;;
13255;SDS011;37913;48.370;10.930;2023-04-25T08:39:24;94.05;;;44.80;;
13255;SDS011;37913;48.370;10.930;2023-04-25T08:41:51;96.55;;;46.47;;
13255;SDS011;37913;48.370;10.930;2023-04-25T08:44:19;91.18;;;46.92;;
13255;SDS011;37913;48.370;10.930;2023-04-25T08:46:49;105.03;;;51.28;;
13255;SDS011;37913;48.370;10.930;2023-04-25T08:49:19;98.50;;;48.55;;
13255;SDS011;37913;48.370;10.930;2023-04-25T08:51:46;93.38;;;47.10;;
13255;SDS011;37913;48.370;10.930;2023-04-25T08:54:15;94.75;;;47.97;;
13255;SDS011;37913;48.370;10.930;2023-04-25T08:56:43;85.78;;;45.13;;
13255;SDS011;37913;48.370;10.930;2023-04-25T08:59:13;96.90;;;46.85;;
13255;SDS011;37913;48.370;10.930;2023-04-25T09:01:40;85.65;;;44.90;;
13255;SDS011;37913;48.370;10.930;2023-04-25T09:04:09;94.25;;;44.97;;
13255;SDS011;37913;48.370;10.930;2023-04-25T09:06:40;90.00;;;42.78;;
13255;SDS011;37913;48.370;10.930;2023-04-25T09:09:08;90.03;;;42.13;;
13255;SDS011;37913;48.370;10.930;2023-04-25T09:11:36;77.97;;;39.33;;
13255;SDS011;37913;48.370;10.930;2023-04-25T09:14:13;90.70;;;40.53;;
13255;SDS011;37913;48.370;10.930;2023-04-25T09:19:31;78.20;;;36.90;;
13255;SDS011;37913;48.370;10.930;2023-04-25T09:22:00;89.63;;;39.25;;
13255;SDS011;37913;48.370;10.930;2023-04-25T09:24:32;86.63;;;38.15;;
13255;SDS011;37913;48.370;10.930;2023-04-25T09:27:05;81.72;;;37.75;;
13255;SDS011;37913;48.370;10.930;2023-04-25T09:29:35;82.63;;;38.08;;
13255;SDS011;37913;48.370;10.930;2023-04-25T09:34:50;92.13;;;40.55;;
13255;SDS011;37913;48.370;10.930;2023-04-25T09:37:18;87.72;;;40.47;;
13255;SDS011;37913;48.370;10.930;2023-04-25T09:39:47;79.03;;;38.80;;
13255;SDS011;37913;48.370;10.930;2023-04-25T09:42:15;87.25;;;45.00;;
13255;SDS011;37913;48.370;10.930;2023-04-25T09:44:45;87.93;;;40.22;;
13255;SDS011;37913;48.370;10.930;2023-04-25T09:47:14;77.32;;;38.20;;
13255;SDS011;37913;48.370;10.930;2023-04-25T09:49:43;80.10;;;38.47;;
13255;SDS011;37913;48.370;10.930;2023-04-25T09:52:15;85.32;;;38.78;;
13255;SDS011;37913;48.370;10.930;2023-04-25T09:54:43;89.28;;;39.17;;
13255;SDS011;37913;48.370;10.930;2023-04-25T09:57:11;89.15;;;39.28;;
13255;SDS011;37913;48.370;10.930;2023-04-25T09:59:43;93.88;;;39.90;;
13255;SDS011;37913;48.370;10.930;2023-04-25T10:02:14;80.72;;;37.03;;
13255;SDS011;37913;48.370;10.930;2023-04-25T10:04:42;96.75;;;40.20;;
13255;SDS011;37913;48.370;10.930;2023-04-25T10:07:11;79.15;;;35.60;;
13255;SDS011;37913;48.370;10.930;2023-04-25T10:09:40;84.00;;;36.17;;
13255;SDS011;37913;48.370;10.930;2023-04-25T10:12:07;75.38;;;34.28;;
13255;SDS011;37913;48.370;10.930;2023-04-25T10:14:35;89.05;;;36.33;;
13255;SDS011;37913;48.370;10.930;2023-04-25T10:17:02;86.93;;;35.90;;
13255;SDS011;37913;48.370;10.930;2023-04-25T10:19:30;81.47;;;34.60;;
13255;SDS011;37913;48.370;10.930;2023-04-25T10:22:01;89.43;;;36.47;;
13255;SDS011;37913;48.370;10.930;2023-04-25T10:24:33;86.22;;;35.78;;
13255;SDS011;37913;48.370;10.930;2023-04-25T10:27:02;82.07;;;35.05;;
13255;SDS011;37913;48.370;10.930;2023-04-25T10:29:31;82.18;;;35.13;;
13255;SDS011;37913;48.370;10.930;2023-04-25T10:31:58;70.38;;;33.30;;
13255;SDS011;37913;48.370;10.930;2023-04-25T10:34:37;86.80;;;36.80;;
13255;SDS011;37913;48.370;10.930;2023-04-25T10:37:08;86.57;;;36.35;;
13255;SDS011;37913;48.370;10.930;2023-04-25T10:39:36;87.88;;;36.95;;
13255;SDS011;37913;48.370;10.930;2023-04-25T10:42:07;87.55;;;37.60;;
13255;SDS011;37913;48.370;10.930;2023-04-25T10:44:34;91.72;;;39.15;;
13255;SDS011;37913;48.370;10.930;2023-04-25T10:47:03;85.47;;;39.75;;
13255;SDS011;37913;48.370;10.930;2023-04-25T10:49:34;83.88;;;38.75;;
13255;SDS011;37913;48.370;10.930;2023-04-25T10:52:16;76.82;;;37.50;;
13255;SDS011;37913;48.370;10.930;2023-04-25T10:54:48;103.00;;;42.28;;
13255;SDS011;37913;48.370;10.930;2023-04-25T10:57:37;83.78;;;38.55;;
13255;SDS011;37913;48.370;10.930;2023-04-25T11:00:10;92.90;;;40.67;;
13255;SDS011;37913;48.370;10.930;2023-04-25T11:02:44;94.03;;;40.65;;
13255;SDS011;37913;48.370;10.930;2023-04-25T11:05:16;85.38;;;39.28;;
13255;SDS011;37913;48.370;10.930;2023-04-25T11:07:49;98.30;;;42.53;;
13255;SDS011;37913;48.370;10.930;2023-04-25T11:10:18;90.40;;;41.28;;
13255;SDS011;37913;48.370;10.930;2023-04-25T11:12:46;90.93;;;41.53;;
13255;SDS011;37913;48.370;10.930;2023-04-25T11:15:14;97.55;;;42.83;;
13255;SDS011;37913;48.370;10.930;2023-04-25T11:17:41;84.80;;;40.65;;
13255;SDS011;37913;48.370;10.930;2023-04-25T11:20:12;88.13;;;41.40;;
13255;SDS011;37913;48.370;10.930;2023-04-25T11:22:40;88.50;;;41.30;;
13255;SDS011;37913;48.370;10.930;2023-04-25T11:25:09;89.95;;;41.80;;
13255;SDS011;37913;48.370;10.930;2023-04-25T11:27:37;82.20;;;40.15;;
13255;SDS011;37913;48.370;10.930;2023-04-25T11:30:14;96.50;;;42.70;;
13255;SDS011;37913;48.370;10.930;2023-04-25T11:32:42;103.72;;;43.83;;
13255;SDS011;37913;48.370;10.930;2023-04-25T11:35:10;87.75;;;39.92;;
13255;SDS011;37913;48.370;10.930;2023-04-25T11:37:38;92.95;;;40.92;;
13255;SDS011;37913;48.370;10.930;2023-04-25T11:40:06;89.00;;;39.15;;
13255;SDS011;37913;48.370;10.930;2023-04-25T11:42:36;86.88;;;37.60;;
13255;SDS011;37913;48.370;10.930;2023-04-25T11:45:05;96.07;;;38.58;;
13255;SDS011;37913;48.370;10.930;2023-04-25T11:47:34;97.72;;;38.55;;
13255;SDS011;37913;48.370;10.930;2023-04-25T11:50:02;90.68;;;36.45;;
13255;SDS011;37913;48.370;10.930;2023-04-25T11:52:40;79.65;;;34.55;;
13255;SDS011;37913;48.370;10.930;2023-04-25T11:55:08;82.22;;;34.60;;
13255;SDS011;37913;48.370;10.930;2023-04-25T11:57:37;78.35;;;34.05;;
13255;SDS011;37913;48.370;10.930;2023-04-25T12:00:07;86.38;;;35.00;;
13255;SDS011;37913;48.370;10.930;2023-04-25T12:02:37;82.28;;;33.78;;
13255;SDS011;37913;48.370;10.930;2023-04-25T12:05:07;86.57;;;34.60;;
13255;SDS011;37913;48.370;10.930;2023-04-25T12:07:35;85.13;;;34.00;;
13255;SDS011;37913;48.370;10.930;2023-04-25T12:10:06;83.15;;;34.10;;
13255;SDS011;37913;48.370;10.930;2023-04-25T12:12:35;82.50;;;34.42;;
13255;SDS011;37913;48.370;10.930;2023-04-25T12:15:11;81.85;;;34.42;;
13255;SDS011;37913;48.370;10.930;2023-04-25T12:17:44;80.55;;;34.30;;
13255;SDS011;37913;48.370;10.930;2023-04-25T12:20:12;71.15;;;32.47;;
13255;SDS011;37913;48.370;10.930;2023-04-25T12:22:41;91.00;;;36.28;;
13255;SDS011;37913;48.370;10.930;2023-04-25T12:25:10;82.88;;;35.08;;
13255;SDS011;37913;48.370;10.930;2023-04-25T12:27:39;88.30;;;36.38;;
13255;SDS011;37913;48.370;10.930;2023-04-25T12:30:08;80.78;;;34.63;;
13255;SDS011;37913;48.370;10.930;2023-04-25T12:32:36;91.65;;;36.85;;
13255;SDS011;37913;48.370;10.930;2023-04-25T12:37:34;83.22;;;34.97;;
13255;SDS011;37913;48.370;10.930;2023-04-25T12:40:01;83.70;;;34.63;;
13255;SDS011;37913;48.370;10.930;2023-04-25T12:42:30;75.07;;;33.22;;
13255;SDS011;37913;48.370;10.930;2023-04-25T12:44:57;96.18;;;36.33;;
13255;SDS011;37913;48.370;10.930;2023-04-25T12:47:24;91.45;;;35.97;;
13255;SDS011;37913;48.370;10.930;2023-04-25T12:49:53;91.30;;;36.33;;
13255;SDS011;37913;48.370;10.930;2023-04-25T12:52:21;89.28;;;35.42;;
13255;SDS011;37913;48.370;10.930;2023-04-25T12:54:48;94.25;;;35.75;;
13255;SDS011;37913;48.370;10.930;2023-04-25T12:57:15;87.15;;;34.83;;
13255;SDS011;37913;48.370;10.930;2023-04-25T12:59:42;88.43;;;35.08;;
13255;SDS011;37913;48.370;10.930;2023-04-25T13:02:08;76.75;;;32.03;;
13255;SDS011;37913;48.370;10.930;2023-04-25T13:04:37;71.45;;;31.38;;
13255;SDS011;37913;48.370;10.930;2023-04-25T13:07:05;77.47;;;32.53;;
13255;SDS011;37913;48.370;10.930;2023-04-25T13:09:33;84.20;;;33.38;;
13255;SDS011;37913;48.370;10.930;2023-04-25T13:12:00;79.43;;;32.88;;
13255;SDS011;37913;48.370;10.930;2023-04-25T13:14:27;76.93;;;32.17;;
13255;SDS011;37913;48.370;10.930;2023-04-25T13:16:54;80.45;;;33.00;;
13255;SDS011;37913;48.370;10.930;2023-04-25T13:19:23;75.00;;;31.80;;
13255;SDS011;37913;48.370;10.930;2023-04-25T13:21:50;73.53;;;31.90;;
13255;SDS011;37913;48.370;10.930;2023-04-25T13:24:17;77.30;;;32.10;;
13255;SDS011;37913;48.370;10.930;2023-04-25T13:26:45;82.13;;;34.03;;
13255;SDS011;37913;48.370;10.930;2023-04-25T13:29:13;77.97;;;32.97;;
13255;SDS011;37913;48.370;10.930;2023-04-25T13:31:41;77.22;;;32.88;;
13255;SDS011;37913;48.370;10.930;2023-04-25T13:34:08;82.90;;;34.08;;
13255;SDS011;37913;48.370;10.930;2023-04-25T13:36:37;78.20;;;33.67;;
13255;SDS011;37913;48.370;10.930;2023-04-25T13:39:05;79.45;;;34.28;;
13255;SDS011;37913;48.370;10.930;2023-04-25T13:41:32;72.70;;;33.13;;
13255;SDS011;37913;48.370;10.930;2023-04-25T13:44:01;84.03;;;34.88;;
13255;SDS011;37913;48.370;10.930;2023-04-25T13:46:28;78.07;;;34.08;;
13255;SDS011;37913;48.370;10.930;2023-04-25T13:48:55;82.30;;;35.03;;
13255;SDS011;37913;48.370;10.930;2023-04-25T13:51:22;69.63;;;32.30;;
13255;SDS011;37913;48.370;10.930;2023-04-25T13:53:49;86.70;;;35.47;;
13255;SDS011;37913;48.370;10.930;2023-04-25T13:56:16;81.75;;;35.28;;
13255;SDS011;37913;48.370;10.930;2023-04-25T13:58:44;84.10;;;36.13;;
13255;SDS011;37913;48.370;10.930;2023-04-25T14:01:14;81.45;;;34.60;;
13255;SDS011;37913;48.370;10.930;2023-04-25T14:03:41;112.57;;;41.20;;
13255;SDS011;37913;48.370;10.930;2023-04-25T14:06:08;71.90;;;33.50;;
13255;SDS011;37913;48.370;10.930;2023-04-25T14:08:36;79.22;;;34.97;;
13255;SDS011;37913;48.370;10.930;2023-04-25T14:11:04;83.85;;;36.30;;
13255;SDS011;37913;48.370;10.930;2023-04-25T14:13:31;86.75;;;35.95;;
13255;SDS011;37913;48.370;10.930;2023-04-25T14:15:59;91.28;;;36.78;;
13255;SDS011;37913;48.370;10.930;2023-04-25T14:18:27;77.88;;;34.28;;
13255;SDS011;37913;48.370;10.930;2023-04-25T14:20:54;93.10;;;37.30;;
13255;SDS011;37913;48.370;10.930;2023-04-25T14:23:21;81.95;;;35.42;;
13255;SDS011;37913;48.370;10.930;2023-04-25T14:25:48;88.53;;;37.25;;
13255;SDS011;37913;48.370;10.930;2023-04-25T14:28:15;77.45;;;34.05;;